Time;durP1;ratioP1;P1;durP2;ratioP2;P2;SDS_P1;SDS_P2;PMS_P1;PMS_P2;Temp;Humidity;BMP_temperature;BMP_pressure;BME280_temperature;BME280_humidity;BME280_pressure;Samples;Min_cycle;Max_cycle;Signal;HPM_P1;HPM_P2
2023/09/02 00:00:15;;;;;;;11.57;9.75;;;;;;;;;;4984390;28;20058;-74
2023/09/02 00:02:42;;;;;;;10.90;9.80;;;;;;;;;;4982830;28;20038;-74
2023/09/02 00:05:08;;;;;;;11.38;10.25;;;;;;;;;;4985360;28;20158;-74
2023/09/02 00:07:33;;;;;;;11.20;10.18;;;;;;;;;;4985548;28;20039;-74
2023/09/02 00:09:59;;;;;;;12.70;10.35;;;;;;;;;;4984372;28;20522;-74
2023/09/02 00:12:24;;;;;;;10.82;9.75;;;;;;;;;;4984883;28;20076;-74
2023/09/02 00:14:50;;;;;;;15.00;9.80;;;;;;;;;;4988749;28;20061;-74
2023/09/02 00:17:15;;;;;;;11.52;10.43;;;;;;;;;;4986377;28;20069;-74
2023/09/02 00:19:43;;;;;;;11.20;10.27;;;;;;;;;;4986551;28;20120;-74
2023/09/02 00:22:08;;;;;;;11.60;10.57;;;;;;;;;;4986376;28;20463;-74
2023/09/02 00:24:34;;;;;;;11.77;10.57;;;;;;;;;;5000861;28;20121;-73
2023/09/02 00:27:00;;;;;;;11.52;10.50;;;;;;;;;;4985104;28;20018;-73
2023/09/02 00:29:25;;;;;;;10.82;9.73;;;;;;;;;;4984169;28;20452;-74
2023/09/02 00:31:51;;;;;;;11.02;9.90;;;;;;;;;;4983507;28;20548;-74
2023/09/02 00:34:16;;;;;;;11.02;9.95;;;;;;;;;;4982146;28;20038;-74
2023/09/02 00:36:42;;;;;;;13.40;10.73;;;;;;;;;;4983895;28;20498;-74
2023/09/02 00:39:07;;;;;;;12.18;10.82;;;;;;;;;;5000850;28;20046;-74
2023/09/02 00:41:47;;;;;;;10.65;9.82;;;;;;;;;;4988299;28;20046;-74
2023/09/02 00:44:13;;;;;;;11.68;10.68;;;;;;;;;;4998264;28;20128;-74
2023/09/02 00:46:39;;;;;;;11.57;10.35;;;;;;;;;;4987187;28;20122;-74
2023/09/02 00:49:05;;;;;;;12.30;11.20;;;;;;;;;;4984824;28;20049;-74
2023/09/02 00:51:30;;;;;;;11.25;10.20;;;;;;;;;;4985405;28;20121;-74
2023/09/02 00:53:56;;;;;;;11.15;10.25;;;;;;;;;;4986492;28;20514;-74
2023/09/02 00:56:24;;;;;;;10.48;9.68;;;;;;;;;;5005229;28;20046;-74
2023/09/02 00:58:50;;;;;;;14.27;10.15;;;;;;;;;;4970183;28;20454;-74
2023/09/02 01:01:17;;;;;;;10.60;9.60;;;;;;;;;;5004644;28;20030;-74
2023/09/02 01:03:42;;;;;;;10.88;9.98;;;;;;;;;;4985764;28;20052;-74
2023/09/02 01:06:08;;;;;;;11.52;10.38;;;;;;;;;;4989806;28;20046;-74
2023/09/02 01:08:37;;;;;;;11.10;10.00;;;;;;;;;;4957417;28;20498;-74
2023/09/02 01:11:03;;;;;;;12.55;11.25;;;;;;;;;;4989232;28;20050;-74
2023/09/02 01:13:29;;;;;;;12.68;10.65;;;;;;;;;;4988470;28;20042;-74
2023/09/02 01:15:55;;;;;;;11.13;10.18;;;;;;;;;;4988748;28;20038;-75
2023/09/02 01:18:25;;;;;;;11.50;10.50;;;;;;;;;;5004235;28;20514;-74
2023/09/02 01:21:18;;;;;;;11.20;10.30;;;;;;;;;;4984432;28;20042;-74
2023/09/02 01:24:08;;;;;;;11.10;10.00;;;;;;;;;;4986223;28;20486;-74
2023/09/02 01:27:02;;;;;;;11.07;10.27;;;;;;;;;;4987950;28;20045;-74
2023/09/02 01:29:31;;;;;;;12.23;11.02;;;;;;;;;;4988239;28;20065;-74
2023/09/02 01:31:57;;;;;;;;;;;;;;;;;;5002484;28;20066;-74
2023/09/02 01:34:24;;;;;;;10.15;9.35;;;;;;;;;;4989360;28;19957;-74
2023/09/02 01:36:52;;;;;;;11.30;10.23;;;;;;;;;;5004101;28;20809;-74
2023/09/02 01:39:19;;;;;;;13.85;11.52;;;;;;;;;;4986033;28;20060;-74
2023/09/02 01:41:46;;;;;;;11.70;10.70;;;;;;;;;;4989021;28;20038;-74
2023/09/02 01:44:13;;;;;;;12.15;11.15;;;;;;;;;;5005781;28;20038;-74
2023/09/02 01:46:39;;;;;;;12.88;11.60;;;;;;;;;;4983544;28;20521;-74
2023/09/02 01:49:07;;;;;;;14.07;11.15;;;;;;;;;;4988511;28;20054;-74
2023/09/02 01:51:33;;;;;;;11.98;10.93;;;;;;;;;;4989323;28;20212;-74
2023/09/02 01:53:59;;;;;;;10.43;9.40;;;;;;;;;;4987140;28;20034;-74
2023/09/02 01:56:25;;;;;;;12.40;11.20;;;;;;;;;;4984290;28;20053;-74
2023/09/02 01:58:53;;;;;;;11.40;10.50;;;;;;;;;;4987366;28;20097;-74
2023/09/02 02:01:18;;;;;;;12.23;11.02;;;;;;;;;;5002872;28;20034;-74
2023/09/02 02:04:07;;;;;;;11.48;10.18;;;;;;;;;;4983806;28;20049;-74
2023/09/02 02:06:35;;;;;;;14.38;10.55;;;;;;;;;;5002462;28;20046;-74
2023/09/02 02:09:08;;;;;;;11.23;10.23;;;;;;;;;;4987256;28;20038;-74
2023/09/02 02:11:36;;;;;;;11.30;10.20;;;;;;;;;;4985483;28;20100;-74
2023/09/02 02:14:03;;;;;;;11.23;10.23;;;;;;;;;;5004162;28;20050;-74
2023/09/02 02:16:29;;;;;;;11.82;10.73;;;;;;;;;;4986548;28;20054;-74
2023/09/02 02:18:56;;;;;;;11.88;10.77;;;;;;;;;;4972004;28;20689;-74
2023/09/02 02:21:22;;;;;;;12.30;11.23;;;;;;;;;;5003280;28;20386;-74
2023/09/02 02:23:48;;;;;;;12.02;10.98;;;;;;;;;;4989947;28;20474;-74
2023/09/02 02:26:15;;;;;;;13.82;11.32;;;;;;;;;;4984106;28;20433;-74
2023/09/02 02:28:41;;;;;;;14.07;10.57;;;;;;;;;;4988413;28;20055;-74
2023/09/02 02:31:07;;;;;;;12.05;10.40;;;;;;;;;;4993507;28;20068;-74
2023/09/02 02:33:33;;;;;;;11.32;10.27;;;;;;;;;;4988134;28;20526;-74
2023/09/02 02:35:58;;;;;;;15.60;11.15;;;;;;;;;;4976939;28;20129;-74
2023/09/02 02:38:24;;;;;;;10.88;9.85;;;;;;;;;;4969549;28;20117;-74
2023/09/02 02:40:49;;;;;;;12.07;10.65;;;;;;;;;;5002879;28;20494;-74
2023/09/02 02:43:15;;;;;;;12.10;10.63;;;;;;;;;;4987799;28;20758;-74
2023/09/02 02:45:41;;;;;;;13.10;10.85;;;;;;;;;;4985747;28;20113;-74
2023/09/02 02:48:12;;;;;;;11.82;10.73;;;;;;;;;;5005789;28;20679;-74
2023/09/02 02:50:38;;;;;;;13.63;11.48;;;;;;;;;;5005545;28;20042;-74
2023/09/02 02:53:05;;;;;;;12.15;10.98;;;;;;;;;;4970508;28;20104;-74
2023/09/02 02:55:31;;;;;;;11.40;10.45;;;;;;;;;;4984515;28;20022;-74
2023/09/02 02:57:57;;;;;;;13.63;10.98;;;;;;;;;;4998703;28;20395;-74
2023/09/02 03:00:23;;;;;;;14.00;10.60;;;;;;;;;;4990098;28;20097;-74
2023/09/02 03:02:52;;;;;;;11.32;10.35;;;;;;;;;;4971444;28;20093;-74
2023/09/02 03:05:20;;;;;;;11.27;10.48;;;;;;;;;;4970392;28;20064;-74
2023/09/02 03:07:47;;;;;;;11.27;10.30;;;;;;;;;;4981477;28;20061;-74
2023/09/02 03:10:13;;;;;;;11.70;10.75;;;;;;;;;;4970031;28;20066;-74
2023/09/02 03:12:39;;;;;;;11.65;10.63;;;;;;;;;;4970819;28;20065;-74
2023/09/02 03:15:07;;;;;;;11.73;10.50;;;;;;;;;;4984205;28;20038;-74
2023/09/02 03:17:33;;;;;;;10.85;9.90;;;;;;;;;;4986073;28;20100;-74
2023/09/02 03:19:59;;;;;;;13.57;10.80;;;;;;;;;;5001729;28;20042;-74
2023/09/02 03:22:25;;;;;;;12.75;11.50;;;;;;;;;;4984985;28;20134;-74
2023/09/02 03:24:54;;;;;;;12.05;10.77;;;;;;;;;;4984289;28;20038;-74
2023/09/02 03:27:22;;;;;;;10.95;9.80;;;;;;;;;;4980881;28;20514;-74
2023/09/02 03:29:49;;;;;;;11.70;10.70;;;;;;;;;;4987792;28;20045;-74
2023/09/02 03:32:16;;;;;;;15.50;10.55;;;;;;;;;;4986206;28;20088;-74
2023/09/02 03:34:42;;;;;;;11.70;10.70;;;;;;;;;;5002366;28;20038;-74
2023/09/02 03:37:08;;;;;;;12.40;10.73;;;;;;;;;;5002747;28;20049;-74
2023/09/02 03:39:34;;;;;;;11.27;10.27;;;;;;;;;;4985096;28;20065;-74
2023/09/02 03:42:00;;;;;;;11.73;10.73;;;;;;;;;;5000782;28;20070;-74
2023/09/02 03:44:26;;;;;;;11.05;10.05;;;;;;;;;;4987892;28;20120;-75
2023/09/02 03:46:52;;;;;;;12.05;10.90;;;;;;;;;;4986848;28;20113;-75
2023/09/02 03:49:18;;;;;;;11.27;10.07;;;;;;;;;;4987538;28;20057;-75
2023/09/02 03:51:44;;;;;;;12.07;10.88;;;;;;;;;;4971073;28;20043;-74
2023/09/02 03:54:11;;;;;;;11.70;10.60;;;;;;;;;;5002939;28;20049;-74
2023/09/02 03:56:39;;;;;;;12.27;10.48;;;;;;;;;;4986152;28;20049;-74
2023/09/02 03:59:06;;;;;;;12.60;10.85;;;;;;;;;;4985202;28;20049;-74
2023/09/02 04:01:32;;;;;;;11.77;10.63;;;;;;;;;;4989246;28;20052;-73
2023/09/02 04:03:59;;;;;;;10.85;9.82;;;;;;;;;;4982542;28;20034;-73
2023/09/02 04:06:25;;;;;;;11.57;10.52;;;;;;;;;;4969851;28;20034;-74
2023/09/02 04:08:51;;;;;;;11.55;10.30;;;;;;;;;;5000501;28;20045;-74
2023/09/02 04:11:18;;;;;;;12.50;9.60;;;;;;;;;;5000908;28;20061;-74
2023/09/02 04:13:44;;;;;;;12.18;10.50;;;;;;;;;;4985692;28;20050;-74
2023/09/02 04:16:11;;;;;;;11.13;10.23;;;;;;;;;;4985695;28;20026;-74
2023/09/02 04:18:37;;;;;;;10.50;9.63;;;;;;;;;;4982850;28;20384;-74
2023/09/02 04:21:04;;;;;;;10.85;9.80;;;;;;;;;;4986147;28;20034;-73
2023/09/02 04:23:31;;;;;;;11.30;10.15;;;;;;;;;;4984876;28;20516;-73
2023/09/02 04:26:02;;;;;;;11.85;9.95;;;;;;;;;;4968933;28;20049;-72
2023/09/02 04:28:28;;;;;;;12.15;10.20;;;;;;;;;;4983832;28;20058;-73
2023/09/02 04:30:59;;;;;;;11.43;10.27;;;;;;;;;;4985786;28;20038;-72
2023/09/02 04:33:27;;;;;;;12.32;10.70;;;;;;;;;;4984776;28;20038;-73
2023/09/02 04:35:54;;;;;;;11.57;10.48;;;;;;;;;;4982322;28;20037;-72
2023/09/02 04:38:20;;;;;;;12.43;10.90;;;;;;;;;;4967538;28;20034;-72
2023/09/02 04:40:48;;;;;;;10.68;9.63;;;;;;;;;;5000730;28;20034;-72
2023/09/02 04:43:15;;;;;;;12.25;10.52;;;;;;;;;;4990010;28;20080;-72
2023/09/02 04:45:42;;;;;;;14.55;10.13;;;;;;;;;;4980681;28;20042;-72
2023/09/02 04:48:11;;;;;;;11.63;9.90;;;;;;;;;;4993537;28;20042;-72
2023/09/02 04:50:38;;;;;;;10.55;9.55;;;;;;;;;;4985476;28;20548;-73
2023/09/02 04:53:05;;;;;;;11.93;9.70;;;;;;;;;;4984942;28;20113;-73
2023/09/02 04:55:38;;;;;;;11.32;10.23;;;;;;;;;;4984953;28;20046;-73
2023/09/02 04:58:04;;;;;;;12.35;9.90;;;;;;;;;;4985906;28;20529;-72
2023/09/02 05:00:30;;;;;;;10.82;9.82;;;;;;;;;;4974741;28;20043;-73
2023/09/02 05:02:56;;;;;;;11.23;10.20;;;;;;;;;;4984133;28;20030;-73
2023/09/02 05:05:23;;;;;;;66.25;11.38;;;;;;;;;;4967948;28;20552;-73
2023/09/02 05:07:49;;;;;;;13.13;10.70;;;;;;;;;;5000429;28;20062;-73
2023/09/02 05:10:16;;;;;;;11.30;10.20;;;;;;;;;;4984385;28;20116;-73
2023/09/02 05:12:42;;;;;;;11.23;10.25;;;;;;;;;;4987475;28;20034;-73
2023/09/02 05:15:09;;;;;;;11.60;10.13;;;;;;;;;;4988305;28;20034;-73
2023/09/02 05:17:36;;;;;;;10.70;9.70;;;;;;;;;;4985063;28;20034;-73
2023/09/02 05:20:03;;;;;;;12.18;10.15;;;;;;;;;;4969859;28;20038;-73
2023/09/02 05:22:29;;;;;;;11.68;9.52;;;;;;;;;;4983950;28;20065;-72
2023/09/02 05:24:55;;;;;;;10.48;9.48;;;;;;;;;;5003044;28;20597;-72
2023/09/02 05:27:21;;;;;;;10.32;9.48;;;;;;;;;;4986009;28;20120;-72
2023/09/02 05:29:47;;;;;;;12.18;9.50;;;;;;;;;;4988118;28;20054;-73
2023/09/02 05:32:13;;;;;;;10.85;9.85;;;;;;;;;;4985309;28;20038;-72
2023/09/02 05:34:39;;;;;;;10.57;9.70;;;;;;;;;;4985022;28;20410;-73
2023/09/02 05:37:05;;;;;;;12.13;9.65;;;;;;;;;;4988299;28;20132;-73
2023/09/02 05:39:30;;;;;;;10.80;9.90;;;;;;;;;;4985839;28;20445;-73
2023/09/02 05:41:56;;;;;;;10.48;9.68;;;;;;;;;;4988937;28;20041;-73
2023/09/02 05:44:21;;;;;;;10.48;9.68;;;;;;;;;;4985391;28;20049;-73
2023/09/02 05:46:47;;;;;;;10.23;9.43;;;;;;;;;;4987553;28;20113;-72
2023/09/02 05:49:13;;;;;;;10.95;9.93;;;;;;;;;;4990468;28;20474;-72
2023/09/02 05:51:39;;;;;;;11.15;10.07;;;;;;;;;;4989710;28;20371;-72
2023/09/02 05:54:09;;;;;;;10.48;9.57;;;;;;;;;;4997282;28;20494;-72
2023/09/02 05:56:38;;;;;;;10.48;9.68;;;;;;;;;;4987209;28;20034;-73
2023/09/02 05:59:04;;;;;;;10.55;9.65;;;;;;;;;;4988686;28;20390;-73
2023/09/02 06:01:30;;;;;;;10.23;9.43;;;;;;;;;;4988122;28;20715;-73
2023/09/02 06:03:56;;;;;;;10.50;9.60;;;;;;;;;;4993771;28;20042;-73
2023/09/02 06:06:22;;;;;;;10.80;9.77;;;;;;;;;;4987208;28;20042;-75
2023/09/02 06:08:48;;;;;;;11.80;10.05;;;;;;;;;;4988850;28;20058;-72
2023/09/02 06:11:14;;;;;;;9.90;9.10;;;;;;;;;;4989234;28;20065;-72
2023/09/02 06:13:39;;;;;;;10.77;9.88;;;;;;;;;;4988350;28;20042;-73
2023/09/02 06:16:06;;;;;;;9.80;9.10;;;;;;;;;;4988718;28;20041;-72
2023/09/02 06:18:33;;;;;;;10.77;9.98;;;;;;;;;;4997982;28;20479;-72
2023/09/02 06:20:59;;;;;;;10.32;9.63;;;;;;;;;;4987946;28;20034;-73
2023/09/02 06:23:25;;;;;;;10.13;9.43;;;;;;;;;;4987977;28;20085;-73
2023/09/02 06:25:58;;;;;;;9.93;9.13;;;;;;;;;;4991328;28;20113;-73
2023/09/02 06:28:25;;;;;;;9.90;9.00;;;;;;;;;;4986711;28;20022;-73
2023/09/02 06:30:50;;;;;;;10.48;9.48;;;;;;;;;;4987837;28;20042;-73
2023/09/02 06:33:18;;;;;;;9.95;9.07;;;;;;;;;;4986162;28;20042;-73
2023/09/02 06:35:43;;;;;;;10.35;9.43;;;;;;;;;;4990490;28;20042;-73
2023/09/02 06:38:09;;;;;;;10.40;9.60;;;;;;;;;;4987510;28;20064;-73
2023/09/02 06:40:34;;;;;;;9.90;9.20;;;;;;;;;;4991386;28;20034;-73
2023/09/02 06:43:00;;;;;;;10.18;9.30;;;;;;;;;;4986272;28;20034;-73
2023/09/02 06:45:26;;;;;;;9.98;9.27;;;;;;;;;;4987575;28;20046;-73
2023/09/02 06:47:51;;;;;;;10.90;9.35;;;;;;;;;;4987688;28;20030;-73
2023/09/02 06:50:17;;;;;;;10.35;9.65;;;;;;;;;;4983759;28;20049;-73
2023/09/02 06:52:42;;;;;;;10.07;9.27;;;;;;;;;;4984996;28;20026;-74
2023/09/02 06:55:08;;;;;;;9.93;9.23;;;;;;;;;;4979598;28;20030;-73
2023/09/02 06:57:34;;;;;;;9.88;9.20;;;;;;;;;;4985585;28;20042;-73
2023/09/02 06:59:59;;;;;;;9.93;9.05;;;;;;;;;;4987490;28;20088;-74
2023/09/02 07:02:25;;;;;;;9.60;8.80;;;;;;;;;;4984974;28;20066;-72
2023/09/02 07:04:50;;;;;;;9.43;8.82;;;;;;;;;;4984390;28;20486;-74
2023/09/02 07:07:16;;;;;;;9.75;8.93;;;;;;;;;;4989327;28;20657;-73
2023/09/02 07:09:42;;;;;;;9.43;8.77;;;;;;;;;;4988876;28;20038;-74
2023/09/02 07:12:07;;;;;;;9.00;8.30;;;;;;;;;;4987521;28;20046;-73
2023/09/02 07:14:33;;;;;;;8.88;8.27;;;;;;;;;;5003611;28;20372;-74
2023/09/02 07:16:58;;;;;;;9.02;8.32;;;;;;;;;;4986658;28;20033;-74
2023/09/02 07:19:24;;;;;;;9.00;8.20;;;;;;;;;;4985794;28;20038;-74
2023/09/02 07:21:50;;;;;;;9.07;8.27;;;;;;;;;;4984279;28;20088;-74
2023/09/02 07:24:16;;;;;;;8.98;8.38;;;;;;;;;;4982968;28;20041;-73
2023/09/02 07:26:41;;;;;;;9.05;8.38;;;;;;;;;;4991883;28;20077;-73
2023/09/02 07:29:07;;;;;;;8.32;7.82;;;;;;;;;;4990394;28;20125;-73
2023/09/02 07:31:33;;;;;;;8.45;7.85;;;;;;;;;;4987242;28;20053;-74
2023/09/02 07:33:58;;;;;;;8.88;8.27;;;;;;;;;;4986195;28;20494;-73
2023/09/02 07:36:24;;;;;;;8.60;7.97;;;;;;;;;;4987166;28;20077;-73
2023/09/02 07:38:50;;;;;;;8.95;8.23;;;;;;;;;;4988921;28;20038;-73
2023/09/02 07:41:15;;;;;;;8.68;7.97;;;;;;;;;;4986790;28;20584;-73
2023/09/02 07:43:41;;;;;;;8.40;7.70;;;;;;;;;;4986418;28;20038;-73
2023/09/02 07:46:06;;;;;;;8.70;8.10;;;;;;;;;;4986728;28;20042;-73
2023/09/02 07:48:32;;;;;;;8.88;8.02;;;;;;;;;;4989905;28;20034;-73
2023/09/02 07:50:57;;;;;;;8.43;7.63;;;;;;;;;;4985560;28;20038;-73
2023/09/02 07:53:23;;;;;;;8.43;7.72;;;;;;;;;;4986709;28;20034;-73
2023/09/02 07:55:49;;;;;;;8.00;7.50;;;;;;;;;;4985023;28;20042;-73
2023/09/02 07:58:14;;;;;;;8.27;7.68;;;;;;;;;;4986165;28;20043;-73
2023/09/02 08:00:40;;;;;;;8.32;7.72;;;;;;;;;;4984449;28;20429;-74
2023/09/02 08:03:06;;;;;;;8.50;7.90;;;;;;;;;;4985115;28;20049;-73
2023/09/02 08:05:31;;;;;;;7.75;7.25;;;;;;;;;;4978993;28;20030;-73
2023/09/02 08:07:57;;;;;;;8.43;7.60;;;;;;;;;;4985300;28;20047;-73
2023/09/02 08:10:23;;;;;;;7.90;7.22;;;;;;;;;;4986273;28;20034;-73
2023/09/02 08:12:48;;;;;;;7.75;7.25;;;;;;;;;;4986381;28;20120;-73
2023/09/02 08:15:15;;;;;;;8.43;7.82;;;;;;;;;;4986257;28;20686;-73
2023/09/02 08:17:42;;;;;;;7.88;7.28;;;;;;;;;;4981346;28;20045;-73
2023/09/02 08:20:08;;;;;;;7.32;6.88;;;;;;;;;;5000972;28;20053;-73
2023/09/02 08:22:36;;;;;;;7.53;6.95;;;;;;;;;;4983095;28;20449;-73
2023/09/02 08:25:11;;;;;;;7.83;7.07;;;;;;;;;;4985334;28;20049;-73
2023/09/02 08:27:36;;;;;;;8.07;7.28;;;;;;;;;;4985883;28;20034;-73
2023/09/02 08:30:03;;;;;;;7.60;7.03;;;;;;;;;;4984979;28;20057;-73
2023/09/02 08:32:30;;;;;;;7.90;7.30;;;;;;;;;;4986467;28;20053;-73
2023/09/02 08:34:56;;;;;;;7.57;7.07;;;;;;;;;;4984608;28;20046;-73
2023/09/02 08:37:21;;;;;;;7.80;7.30;;;;;;;;;;4984926;28;20383;-73
2023/09/02 08:39:47;;;;;;;7.95;7.30;;;;;;;;;;4985193;28;20720;-73
2023/09/02 08:42:17;;;;;;;7.60;7.00;;;;;;;;;;4987870;28;20442;-72
2023/09/02 08:44:45;;;;;;;7.65;7.05;;;;;;;;;;4981374;28;20506;-73
2023/09/02 08:47:11;;;;;;;7.80;6.80;;;;;;;;;;4980464;28;20053;-73
2023/09/02 08:49:37;;;;;;;7.93;7.32;;;;;;;;;;5000752;28;20034;-73
2023/09/02 08:52:05;;;;;;;7.97;7.40;;;;;;;;;;4985714;28;20066;-73
2023/09/02 08:54:31;;;;;;;7.65;6.95;;;;;;;;;;4983031;28;20049;-73
2023/09/02 08:56:57;;;;;;;6.78;6.32;;;;;;;;;;4985452;28;20034;-73
2023/09/02 08:59:25;;;;;;;7.10;6.60;;;;;;;;;;4984337;28;20042;-73
2023/09/02 09:01:52;;;;;;;7.67;6.97;;;;;;;;;;4984501;28;20529;-73
2023/09/02 09:04:19;;;;;;;6.63;6.20;;;;;;;;;;4987677;28;20361;-73
2023/09/02 09:06:45;;;;;;;7.70;7.00;;;;;;;;;;4986517;28;20132;-73
2023/09/02 09:09:11;;;;;;;7.43;6.72;;;;;;;;;;4986026;28;20062;-74
2023/09/02 09:11:42;;;;;;;7.32;6.72;;;;;;;;;;4984841;28;20038;-73
2023/09/02 09:14:16;;;;;;;6.88;6.22;;;;;;;;;;4982215;28;20387;-74
2023/09/02 09:16:43;;;;;;;10.98;6.50;;;;;;;;;;4991801;28;20061;-74
2023/09/02 09:19:09;;;;;;;6.82;6.35;;;;;;;;;;4988887;28;20194;-73
2023/09/02 09:21:34;;;;;;;7.13;6.43;;;;;;;;;;4986803;28;20900;-73
2023/09/02 09:24:00;;;;;;;6.95;6.50;;;;;;;;;;5005412;28;20042;-74
2023/09/02 09:26:27;;;;;;;6.95;6.45;;;;;;;;;;4989172;28;20034;-74
2023/09/02 09:28:56;;;;;;;7.00;6.50;;;;;;;;;;4988196;28;20173;-74
2023/09/02 09:31:22;;;;;;;6.60;6.20;;;;;;;;;;4989255;28;20105;-74
2023/09/02 09:34:00;;;;;;;6.55;6.15;;;;;;;;;;4990300;28;20401;-74
2023/09/02 09:36:28;;;;;;;6.90;6.40;;;;;;;;;;4983754;28;20042;-74
2023/09/02 09:39:00;;;;;;;10.17;7.07;;;;;;;;;;4988742;28;20293;-74
2023/09/02 09:41:27;;;;;;;7.40;6.90;;;;;;;;;;4988603;28;20117;-74
2023/09/02 09:44:13;;;;;;;7.03;6.40;;;;;;;;;;4989478;28;20034;-73
2023/09/02 09:46:52;;;;;;;6.97;6.38;;;;;;;;;;4987363;28;20058;-73
2023/09/02 09:49:22;;;;;;;6.70;6.20;;;;;;;;;;4988610;28;20061;-76
2023/09/02 09:52:10;;;;;;;6.70;6.30;;;;;;;;;;4988811;28;20030;-74
2023/09/02 09:54:45;;;;;;;6.88;6.20;;;;;;;;;;4987153;28;20042;-74
2023/09/02 09:57:16;;;;;;;6.18;5.78;;;;;;;;;;4987068;28;20054;-73
2023/09/02 09:59:51;;;;;;;6.32;5.85;;;;;;;;;;4986845;28;20125;-73
2023/09/02 10:02:20;;;;;;;6.93;5.75;;;;;;;;;;4983242;28;20049;-73
2023/09/02 10:05:03;;;;;;;;;;;;;;;;;;4987603;28;20042;-73
2023/09/02 10:07:32;;;;;;;6.57;6.07;;;;;;;;;;4988126;28;19933;-73
2023/09/02 10:09:59;;;;;;;6.50;5.95;;;;;;;;;;4987276;28;20391;-73
2023/09/02 10:12:26;;;;;;;6.40;5.93;;;;;;;;;;4987790;28;20576;-73
2023/09/02 10:14:51;;;;;;;6.25;5.85;;;;;;;;;;4987469;28;20038;-73
2023/09/02 10:17:18;;;;;;;6.32;5.93;;;;;;;;;;4987063;28;20061;-73
2023/09/02 10:19:45;;;;;;;6.50;6.00;;;;;;;;;;4984325;28;20080;-73
2023/09/02 10:22:21;;;;;;;6.30;5.90;;;;;;;;;;4987759;28;20053;-73
2023/09/02 10:25:13;;;;;;;5.90;5.50;;;;;;;;;;4987663;28;20057;-73
2023/09/02 10:27:43;;;;;;;6.00;5.60;;;;;;;;;;4983815;28;20099;-73
2023/09/02 10:30:16;;;;;;;6.57;5.97;;;;;;;;;;4987952;28;20038;-73
2023/09/02 10:32:49;;;;;;;6.47;5.88;;;;;;;;;;4987875;28;20081;-73
2023/09/02 10:35:22;;;;;;;6.22;5.70;;;;;;;;;;4987171;28;20038;-73
2023/09/02 10:37:54;;;;;;;6.40;5.90;;;;;;;;;;4998359;28;20030;-73
2023/09/02 10:40:21;;;;;;;6.20;5.70;;;;;;;;;;4987611;28;20117;-73
2023/09/02 10:42:49;;;;;;;6.03;5.63;;;;;;;;;;4987850;28;20104;-73
2023/09/02 10:45:15;;;;;;;6.25;5.70;;;;;;;;;;4985574;28;20061;-73
2023/09/02 10:47:42;;;;;;;6.13;5.60;;;;;;;;;;4987777;28;20490;-73
2023/09/02 10:50:08;;;;;;;5.95;5.47;;;;;;;;;;5003030;28;20038;-73
2023/09/02 10:52:34;;;;;;;6.25;5.65;;;;;;;;;;4986119;28;20105;-73
2023/09/02 10:55:08;;;;;;;6.57;5.30;;;;;;;;;;4988703;28;20132;-73
2023/09/02 10:57:56;;;;;;;6.10;5.57;;;;;;;;;;4987772;28;20121;-73
2023/09/02 11:00:26;;;;;;;8.07;5.78;;;;;;;;;;4988864;28;20030;-73
2023/09/02 11:02:57;;;;;;;6.03;5.57;;;;;;;;;;4992940;28;20030;-73
2023/09/02 11:05:25;;;;;;;6.18;5.68;;;;;;;;;;4986868;28;20093;-73
2023/09/02 11:07:52;;;;;;;6.23;5.53;;;;;;;;;;4987284;28;20070;-73
2023/09/02 11:10:19;;;;;;;6.20;5.60;;;;;;;;;;4987459;28;20780;-72
2023/09/02 11:13:00;;;;;;;6.18;5.57;;;;;;;;;;4967788;28;20121;-72
2023/09/02 11:15:27;;;;;;;6.20;5.70;;;;;;;;;;4986952;28;20125;-72
2023/09/02 11:17:53;;;;;;;5.65;5.28;;;;;;;;;;4984658;28;20586;-75
2023/09/02 11:20:25;;;;;;;5.82;5.40;;;;;;;;;;4980192;28;20046;-75
2023/09/02 11:23:09;;;;;;;5.80;5.40;;;;;;;;;;4987427;28;20045;-72
2023/09/02 11:25:38;;;;;;;6.20;5.80;;;;;;;;;;4986228;28;20068;-73
2023/09/02 11:28:19;;;;;;;6.05;5.65;;;;;;;;;;4985337;28;20037;-73
2023/09/02 11:31:03;;;;;;;5.95;5.55;;;;;;;;;;4986287;28;20108;-73
2023/09/02 11:33:29;;;;;;;6.57;6.00;;;;;;;;;;4986076;28;20066;-73
2023/09/02 11:36:13;;;;;;;6.40;5.80;;;;;;;;;;4984918;28;20478;-74
2023/09/02 11:38:39;;;;;;;5.65;5.35;;;;;;;;;;4982751;28;20038;-73
2023/09/02 11:41:05;;;;;;;6.65;5.75;;;;;;;;;;4986823;28;20038;-73
2023/09/02 11:43:32;;;;;;;6.38;5.97;;;;;;;;;;4986957;28;20045;-73
2023/09/02 11:46:02;;;;;;;6.20;5.70;;;;;;;;;;4986202;28;20038;-73
2023/09/02 11:48:29;;;;;;;7.03;6.45;;;;;;;;;;4983766;28;20493;-74
2023/09/02 11:50:58;;;;;;;8.18;6.47;;;;;;;;;;5001887;28;20437;-74
2023/09/02 11:53:28;;;;;;;6.70;6.20;;;;;;;;;;4986403;28;20705;-74
2023/09/02 11:55:55;;;;;;;6.70;6.30;;;;;;;;;;4986361;28;20030;-74
2023/09/02 11:58:20;;;;;;;7.68;7.05;;;;;;;;;;4982307;28;20743;-74
2023/09/02 12:00:46;;;;;;;7.40;6.90;;;;;;;;;;4986440;28;20041;-74
2023/09/02 12:03:23;;;;;;;7.50;6.90;;;;;;;;;;4986543;28;20045;-74
2023/09/02 12:05:51;;;;;;;7.95;7.35;;;;;;;;;;4982120;28;20538;-74
2023/09/02 12:08:18;;;;;;;7.32;6.93;;;;;;;;;;4989675;28;20038;-73
2023/09/02 12:10:46;;;;;;;7.78;7.07;;;;;;;;;;5013559;28;20121;-74
2023/09/02 12:13:11;;;;;;;7.57;7.07;;;;;;;;;;4984987;28;20034;-74
2023/09/02 12:15:37;;;;;;;8.10;7.40;;;;;;;;;;4986123;28;20053;-74
2023/09/02 12:18:03;;;;;;;7.80;7.25;;;;;;;;;;4967990;28;20031;-73
2023/09/02 12:20:29;;;;;;;8.07;7.55;;;;;;;;;;4985793;28;20041;-74
2023/09/02 12:22:55;;;;;;;7.53;7.03;;;;;;;;;;4997611;28;20038;-74
2023/09/02 12:25:23;;;;;;;8.07;7.47;;;;;;;;;;4985596;28;20806;-74
2023/09/02 12:27:49;;;;;;;8.35;7.18;;;;;;;;;;4981666;28;20069;-74
2023/09/02 12:30:26;;;;;;;7.70;7.20;;;;;;;;;;4965043;28;20081;-74
2023/09/02 12:32:51;;;;;;;7.70;7.20;;;;;;;;;;4984376;28;20053;-74
2023/09/02 12:35:17;;;;;;;7.70;7.20;;;;;;;;;;4973756;28;20030;-74
2023/09/02 12:37:42;;;;;;;7.68;7.13;;;;;;;;;;4983635;28;20692;-74
2023/09/02 12:40:13;;;;;;;7.68;7.15;;;;;;;;;;4984111;28;20038;-75
2023/09/02 12:42:40;;;;;;;7.63;7.07;;;;;;;;;;4996559;28;20038;-75
2023/09/02 12:45:07;;;;;;;7.53;6.93;;;;;;;;;;4983365;28;20041;-74
2023/09/02 12:47:33;;;;;;;7.53;7.03;;;;;;;;;;4985174;28;20046;-74
2023/09/02 12:50:03;;;;;;;7.50;7.00;;;;;;;;;;4987274;28;20115;-74
2023/09/02 12:52:30;;;;;;;7.88;7.18;;;;;;;;;;4990396;28;20401;-75
2023/09/02 12:54:58;;;;;;;8.20;7.40;;;;;;;;;;4988494;28;20065;-75
2023/09/02 12:57:28;;;;;;;7.80;7.28;;;;;;;;;;4988088;28;20427;-75
2023/09/02 12:59:54;;;;;;;8.55;7.75;;;;;;;;;;4989918;28;20030;-75
2023/09/02 13:02:23;;;;;;;8.38;7.72;;;;;;;;;;5005777;28;20046;-74
2023/09/02 13:04:49;;;;;;;8.18;7.60;;;;;;;;;;4989378;28;20035;-75
2023/09/02 13:07:19;;;;;;;8.50;7.72;;;;;;;;;;4989503;28;20042;-75
2023/09/02 13:09:45;;;;;;;8.02;7.47;;;;;;;;;;4974051;28;20513;-74
2023/09/02 13:12:10;;;;;;;8.00;7.50;;;;;;;;;;4989909;28;20046;-75
2023/09/02 13:14:38;;;;;;;8.30;7.75;;;;;;;;;;4989710;28;20060;-75
2023/09/02 13:17:05;;;;;;;8.47;7.87;;;;;;;;;;4987862;28;20451;-74
2023/09/02 13:19:31;;;;;;;8.30;7.60;;;;;;;;;;4989920;28;20312;-74
2023/09/02 13:21:57;;;;;;;8.40;7.80;;;;;;;;;;4988631;28;20494;-74
2023/09/02 13:24:25;;;;;;;8.40;7.80;;;;;;;;;;4988779;28;20041;-74
2023/09/02 13:26:51;;;;;;;;;;;;;;;;;;5005151;28;20042;-75
2023/09/02 13:29:18;;;;;;;8.48;7.78;;;;;;;;;;4989448;28;20708;-75
2023/09/02 13:31:45;;;;;;;7.90;7.40;;;;;;;;;;5002315;28;20046;-74
2023/09/02 13:34:30;;;;;;;8.25;7.70;;;;;;;;;;4984497;28;20042;-74
2023/09/02 13:37:07;;;;;;;8.38;7.78;;;;;;;;;;4986000;28;20038;-73
2023/09/02 13:39:33;;;;;;;8.05;7.45;;;;;;;;;;4988666;28;20066;-73
2023/09/02 13:42:00;;;;;;;8.15;7.65;;;;;;;;;;4986862;28;20509;-73
2023/09/02 13:44:26;;;;;;;8.68;8.07;;;;;;;;;;4987781;28;20037;-74
2023/09/02 13:46:56;;;;;;;8.40;7.80;;;;;;;;;;4987137;28;20778;-74
2023/09/02 13:49:22;;;;;;;9.15;7.90;;;;;;;;;;4986667;28;20046;-74
2023/09/02 13:51:48;;;;;;;8.40;7.70;;;;;;;;;;4981031;28;20041;-74
2023/09/02 13:54:14;;;;;;;8.52;8.00;;;;;;;;;;4988186;28;20034;-74
2023/09/02 13:56:44;;;;;;;8.30;7.78;;;;;;;;;;4969602;28;20034;-74
2023/09/02 13:59:10;;;;;;;8.55;7.97;;;;;;;;;;4983458;28;20031;-74
2023/09/02 14:01:36;;;;;;;9.20;8.60;;;;;;;;;;5001869;28;20039;-74
2023/09/02 14:04:02;;;;;;;8.80;8.30;;;;;;;;;;4987999;28;20038;-74
2023/09/02 14:06:28;;;;;;;9.23;8.40;;;;;;;;;;4987422;28;20521;-74
2023/09/02 14:08:54;;;;;;;8.85;8.30;;;;;;;;;;4986309;28;20235;-74
2023/09/02 14:11:19;;;;;;;8.80;8.20;;;;;;;;;;4988516;28;20504;-74
2023/09/02 14:13:47;;;;;;;8.85;8.30;;;;;;;;;;4970926;28;20587;-75
2023/09/02 14:16:12;;;;;;;8.70;8.10;;;;;;;;;;4985926;28;20096;-74
2023/09/02 14:18:38;;;;;;;8.88;8.27;;;;;;;;;;4988830;28;20038;-74
2023/09/02 14:21:04;;;;;;;8.70;8.20;;;;;;;;;;4989184;28;20045;-74
2023/09/02 14:23:32;;;;;;;9.13;8.43;;;;;;;;;;4978813;28;20038;-72
2023/09/02 14:25:57;;;;;;;9.30;8.60;;;;;;;;;;4982352;28;20042;-75
2023/09/02 14:28:23;;;;;;;9.10;8.50;;;;;;;;;;4974388;28;20088;-74
2023/09/02 14:30:48;;;;;;;8.70;8.10;;;;;;;;;;4972961;28;20066;-73
2023/09/02 14:33:14;;;;;;;8.70;8.20;;;;;;;;;;4977111;28;20030;-73
2023/09/02 14:35:40;;;;;;;8.25;7.65;;;;;;;;;;4970640;28;20088;-72